sensor_id;sensor_type;location;lat;lon;timestamp;P1;durP1;ratioP1;P2;durP2;ratioP2
52964;SDS011;42923;53.220;6.528;2023-04-03T00:00:40;3.15;;;2.30;;
52964;SDS011;42923;53.220;6.528;2023-04-03T00:03:05;2.70;;;2.13;;
52964;SDS011;42923;53.220;6.528;2023-04-03T00:05:31;2.53;;;1.42;;
52964;SDS011;42923;53.220;6.528;2023-04-03T00:07:57;2.05;;;1.65;;
52964;SDS011;42923;53.220;6.528;2023-04-03T00:10:23;2.78;;;1.77;;
52964;SDS011;42923;53.220;6.528;2023-04-03T00:12:49;2.13;;;1.55;;
52964;SDS011;42923;53.220;6.528;2023-04-03T00:15:15;1.65;;;1.25;;
52964;SDS011;42923;53.220;6.528;2023-04-03T00:17:41;6.05;;;1.48;;
52964;SDS011;42923;53.220;6.528;2023-04-03T00:20:06;3.97;;;1.67;;
52964;SDS011;42923;53.220;6.528;2023-04-03T00:22:32;1.17;;;1.08;;
52964;SDS011;42923;53.220;6.528;2023-04-03T00:24:58;4.45;;;1.85;;
52964;SDS011;42923;53.220;6.528;2023-04-03T00:27:24;2.72;;;1.27;;
52964;SDS011;42923;53.220;6.528;2023-04-03T00:29:50;4.03;;;1.17;;
52964;SDS011;42923;53.220;6.528;2023-04-03T00:32:15;2.67;;;1.30;;
52964;SDS011;42923;53.220;6.528;2023-04-03T00:34:41;3.00;;;1.85;;
52964;SDS011;42923;53.220;6.528;2023-04-03T00:37:07;9.93;;;1.67;;
52964;SDS011;42923;53.220;6.528;2023-04-03T00:39:32;4.78;;;1.30;;
52964;SDS011;42923;53.220;6.528;2023-04-03T00:41:58;3.88;;;1.30;;
52964;SDS011;42923;53.220;6.528;2023-04-03T00:46:52;1.63;;;1.13;;
52964;SDS011;42923;53.220;6.528;2023-04-03T00:49:18;4.55;;;2.63;;
52964;SDS011;42923;53.220;6.528;2023-04-03T00:51:45;3.08;;;1.30;;
52964;SDS011;42923;53.220;6.528;2023-04-03T00:54:11;2.80;;;1.50;;
52964;SDS011;42923;53.220;6.528;2023-04-03T00:56:37;4.47;;;1.40;;
52964;SDS011;42923;53.220;6.528;2023-04-03T00:59:04;1.77;;;1.40;;
52964;SDS011;42923;53.220;6.528;2023-04-03T01:01:34;4.75;;;1.70;;
52964;SDS011;42923;53.220;6.528;2023-04-03T01:04:01;2.13;;;1.52;;
52964;SDS011;42923;53.220;6.528;2023-04-03T01:06:30;1.90;;;1.50;;
52964;SDS011;42923;53.220;6.528;2023-04-03T01:09:04;2.70;;;1.38;;
52964;SDS011;42923;53.220;6.528;2023-04-03T01:11:31;2.47;;;1.50;;
52964;SDS011;42923;53.220;6.528;2023-04-03T01:13:56;3.38;;;1.38;;
52964;SDS011;42923;53.220;6.528;2023-04-03T01:16:23;3.95;;;1.55;;
52964;SDS011;42923;53.220;6.528;2023-04-03T01:18:49;4.32;;;1.88;;
52964;SDS011;42923;53.220;6.528;2023-04-03T01:26:58;3.22;;;1.50;;
52964;SDS011;42923;53.220;6.528;2023-04-03T01:29:26;3.80;;;1.70;;
52964;SDS011;42923;53.220;6.528;2023-04-03T01:34:23;4.75;;;1.80;;
52964;SDS011;42923;53.220;6.528;2023-04-03T01:36:49;3.30;;;1.55;;
52964;SDS011;42923;53.220;6.528;2023-04-03T01:39:16;6.22;;;1.90;;
52964;SDS011;42923;53.220;6.528;2023-04-03T01:41:42;5.05;;;1.52;;
52964;SDS011;42923;53.220;6.528;2023-04-03T01:44:17;6.15;;;1.85;;
52964;SDS011;42923;53.220;6.528;2023-04-03T01:46:43;4.72;;;1.85;;
52964;SDS011;42923;53.220;6.528;2023-04-03T01:49:09;4.75;;;1.20;;
52964;SDS011;42923;53.220;6.528;2023-04-03T01:51:35;7.70;;;2.05;;
52964;SDS011;42923;53.220;6.528;2023-04-03T01:54:01;6.43;;;1.58;;
52964;SDS011;42923;53.220;6.528;2023-04-03T01:56:27;7.35;;;2.03;;
52964;SDS011;42923;53.220;6.528;2023-04-03T01:58:55;5.50;;;2.03;;
52964;SDS011;42923;53.220;6.528;2023-04-03T02:01:21;2.70;;;1.35;;
52964;SDS011;42923;53.220;6.528;2023-04-03T02:03:47;11.23;;;1.83;;
52964;SDS011;42923;53.220;6.528;2023-04-03T02:06:13;5.55;;;1.98;;
52964;SDS011;42923;53.220;6.528;2023-04-03T02:08:38;3.45;;;2.15;;
52964;SDS011;42923;53.220;6.528;2023-04-03T02:11:05;3.00;;;1.90;;
52964;SDS011;42923;53.220;6.528;2023-04-03T02:13:32;6.60;;;1.83;;
52964;SDS011;42923;53.220;6.528;2023-04-03T02:15:58;5.25;;;1.67;;
52964;SDS011;42923;53.220;6.528;2023-04-03T02:18:24;4.55;;;1.65;;
52964;SDS011;42923;53.220;6.528;2023-04-03T02:20:50;15.48;;;3.13;;
52964;SDS011;42923;53.220;6.528;2023-04-03T02:23:15;5.95;;;2.13;;
52964;SDS011;42923;53.220;6.528;2023-04-03T02:25:41;4.10;;;1.70;;
52964;SDS011;42923;53.220;6.528;2023-04-03T02:28:07;6.00;;;1.85;;
52964;SDS011;42923;53.220;6.528;2023-04-03T02:30:32;2.85;;;1.60;;
52964;SDS011;42923;53.220;6.528;2023-04-03T02:32:58;6.18;;;1.83;;
52964;SDS011;42923;53.220;6.528;2023-04-03T02:35:25;3.35;;;1.50;;
52964;SDS011;42923;53.220;6.528;2023-04-03T02:37:51;5.22;;;1.55;;
52964;SDS011;42923;53.220;6.528;2023-04-03T02:40:17;2.55;;;1.83;;
52964;SDS011;42923;53.220;6.528;2023-04-03T02:42:43;6.03;;;1.95;;
52964;SDS011;42923;53.220;6.528;2023-04-03T02:45:10;3.38;;;1.80;;
52964;SDS011;42923;53.220;6.528;2023-04-03T02:47:36;8.07;;;1.73;;
52964;SDS011;42923;53.220;6.528;2023-04-03T02:50:01;3.63;;;1.75;;
52964;SDS011;42923;53.220;6.528;2023-04-03T02:52:27;4.38;;;2.00;;
52964;SDS011;42923;53.220;6.528;2023-04-03T02:54:56;7.85;;;2.30;;
52964;SDS011;42923;53.220;6.528;2023-04-03T02:57:22;7.32;;;2.25;;
52964;SDS011;42923;53.220;6.528;2023-04-03T02:59:47;5.95;;;1.90;;
52964;SDS011;42923;53.220;6.528;2023-04-03T03:02:13;4.60;;;1.80;;
52964;SDS011;42923;53.220;6.528;2023-04-03T03:04:39;7.18;;;2.47;;
52964;SDS011;42923;53.220;6.528;2023-04-03T03:07:05;4.78;;;2.22;;
52964;SDS011;42923;53.220;6.528;2023-04-03T03:09:31;3.58;;;1.60;;
52964;SDS011;42923;53.220;6.528;2023-04-03T03:11:57;8.05;;;2.67;;
52964;SDS011;42923;53.220;6.528;2023-04-03T03:14:23;6.95;;;2.05;;
52964;SDS011;42923;53.220;6.528;2023-04-03T03:16:49;5.28;;;2.35;;
52964;SDS011;42923;53.220;6.528;2023-04-03T03:19:15;11.15;;;2.38;;
52964;SDS011;42923;53.220;6.528;2023-04-03T03:21:40;4.25;;;2.38;;
52964;SDS011;42923;53.220;6.528;2023-04-03T03:24:06;5.88;;;2.25;;
52964;SDS011;42923;53.220;6.528;2023-04-03T03:26:32;3.97;;;2.10;;
52964;SDS011;42923;53.220;6.528;2023-04-03T03:28:58;2.58;;;1.60;;
52964;SDS011;42923;53.220;6.528;2023-04-03T03:31:25;8.40;;;2.10;;
52964;SDS011;42923;53.220;6.528;2023-04-03T03:33:50;3.65;;;2.25;;
52964;SDS011;42923;53.220;6.528;2023-04-03T03:36:16;3.15;;;2.13;;
52964;SDS011;42923;53.220;6.528;2023-04-03T03:38:42;7.38;;;2.80;;
52964;SDS011;42923;53.220;6.528;2023-04-03T03:41:08;5.88;;;2.53;;
52964;SDS011;42923;53.220;6.528;2023-04-03T03:43:34;4.78;;;2.58;;
52964;SDS011;42923;53.220;6.528;2023-04-03T03:46:02;3.50;;;1.90;;
52964;SDS011;42923;53.220;6.528;2023-04-03T03:48:28;5.20;;;2.25;;
52964;SDS011;42923;53.220;6.528;2023-04-03T03:50:54;6.05;;;2.50;;
52964;SDS011;42923;53.220;6.528;2023-04-03T03:53:24;3.47;;;2.63;;
52964;SDS011;42923;53.220;6.528;2023-04-03T03:55:52;5.30;;;2.55;;
52964;SDS011;42923;53.220;6.528;2023-04-03T03:58:21;6.50;;;2.67;;
52964;SDS011;42923;53.220;6.528;2023-04-03T04:00:47;3.47;;;1.90;;
52964;SDS011;42923;53.220;6.528;2023-04-03T04:03:13;5.03;;;2.35;;
52964;SDS011;42923;53.220;6.528;2023-04-03T04:05:40;6.63;;;2.60;;
52964;SDS011;42923;53.220;6.528;2023-04-03T04:08:05;4.70;;;1.80;;
52964;SDS011;42923;53.220;6.528;2023-04-03T04:10:32;6.80;;;2.58;;
52964;SDS011;42923;53.220;6.528;2023-04-03T04:12:59;8.35;;;2.40;;
52964;SDS011;42923;53.220;6.528;2023-04-03T04:15:27;6.68;;;2.42;;
52964;SDS011;42923;53.220;6.528;2023-04-03T04:17:53;6.50;;;2.38;;
52964;SDS011;42923;53.220;6.528;2023-04-03T04:20:20;7.80;;;2.35;;
52964;SDS011;42923;53.220;6.528;2023-04-03T04:22:47;8.25;;;2.40;;
52964;SDS011;42923;53.220;6.528;2023-04-03T04:25:13;5.50;;;3.05;;
52964;SDS011;42923;53.220;6.528;2023-04-03T04:27:39;6.88;;;2.20;;
52964;SDS011;42923;53.220;6.528;2023-04-03T04:30:06;3.90;;;2.45;;
52964;SDS011;42923;53.220;6.528;2023-04-03T04:32:33;10.88;;;2.75;;
52964;SDS011;42923;53.220;6.528;2023-04-03T04:34:59;7.80;;;2.72;;
52964;SDS011;42923;53.220;6.528;2023-04-03T04:37:26;3.80;;;2.67;;
52964;SDS011;42923;53.220;6.528;2023-04-03T04:39:52;4.50;;;2.60;;
52964;SDS011;42923;53.220;6.528;2023-04-03T04:42:18;6.78;;;2.60;;
52964;SDS011;42923;53.220;6.528;2023-04-03T04:44:46;4.90;;;2.30;;
52964;SDS011;42923;53.220;6.528;2023-04-03T04:47:13;8.77;;;3.17;;
52964;SDS011;42923;53.220;6.528;2023-04-03T04:49:40;11.18;;;3.42;;
52964;SDS011;42923;53.220;6.528;2023-04-03T04:52:06;6.20;;;2.28;;
52964;SDS011;42923;53.220;6.528;2023-04-03T04:54:32;11.90;;;2.80;;
52964;SDS011;42923;53.220;6.528;2023-04-03T04:56:57;5.82;;;2.90;;
52964;SDS011;42923;53.220;6.528;2023-04-03T04:59:25;5.40;;;2.58;;
52964;SDS011;42923;53.220;6.528;2023-04-03T05:01:53;10.15;;;2.83;;
52964;SDS011;42923;53.220;6.528;2023-04-03T05:04:19;5.05;;;2.03;;
52964;SDS011;42923;53.220;6.528;2023-04-03T05:06:49;7.63;;;2.80;;
52964;SDS011;42923;53.220;6.528;2023-04-03T05:09:19;5.90;;;3.35;;
52964;SDS011;42923;53.220;6.528;2023-04-03T05:11:46;4.05;;;2.60;;
52964;SDS011;42923;53.220;6.528;2023-04-03T05:14:14;10.32;;;3.47;;
52964;SDS011;42923;53.220;6.528;2023-04-03T05:16:40;6.22;;;3.60;;
52964;SDS011;42923;53.220;6.528;2023-04-03T05:19:06;7.60;;;3.95;;
52964;SDS011;42923;53.220;6.528;2023-04-03T05:21:32;12.52;;;3.72;;
52964;SDS011;42923;53.220;6.528;2023-04-03T05:24:01;9.25;;;4.82;;
52964;SDS011;42923;53.220;6.528;2023-04-03T05:26:31;11.45;;;3.63;;
52964;SDS011;42923;53.220;6.528;2023-04-03T05:28:57;7.93;;;3.20;;
52964;SDS011;42923;53.220;6.528;2023-04-03T05:31:23;15.38;;;4.03;;
52964;SDS011;42923;53.220;6.528;2023-04-03T05:33:50;6.88;;;3.95;;
52964;SDS011;42923;53.220;6.528;2023-04-03T05:36:17;7.93;;;2.60;;
52964;SDS011;42923;53.220;6.528;2023-04-03T05:38:46;8.68;;;3.10;;
52964;SDS011;42923;53.220;6.528;2023-04-03T05:41:13;9.82;;;3.60;;
52964;SDS011;42923;53.220;6.528;2023-04-03T05:43:43;5.32;;;2.85;;
52964;SDS011;42923;53.220;6.528;2023-04-03T05:46:10;5.57;;;3.13;;
52964;SDS011;42923;53.220;6.528;2023-04-03T05:48:37;5.60;;;2.92;;
52964;SDS011;42923;53.220;6.528;2023-04-03T05:51:05;6.40;;;3.10;;
52964;SDS011;42923;53.220;6.528;2023-04-03T05:53:32;11.45;;;2.85;;
52964;SDS011;42923;53.220;6.528;2023-04-03T05:56:03;6.55;;;2.55;;
52964;SDS011;42923;53.220;6.528;2023-04-03T05:58:32;2.97;;;2.55;;
52964;SDS011;42923;53.220;6.528;2023-04-03T06:00:58;5.70;;;2.55;;
52964;SDS011;42923;53.220;6.528;2023-04-03T06:03:24;6.38;;;3.17;;
52964;SDS011;42923;53.220;6.528;2023-04-03T06:05:50;8.05;;;2.85;;
52964;SDS011;42923;53.220;6.528;2023-04-03T06:08:16;7.50;;;2.53;;
52964;SDS011;42923;53.220;6.528;2023-04-03T06:10:42;5.07;;;2.70;;
52964;SDS011;42923;53.220;6.528;2023-04-03T06:13:08;6.47;;;2.80;;
52964;SDS011;42923;53.220;6.528;2023-04-03T06:15:33;6.07;;;3.05;;
52964;SDS011;42923;53.220;6.528;2023-04-03T06:17:59;4.32;;;3.13;;
52964;SDS011;42923;53.220;6.528;2023-04-03T06:20:25;6.80;;;3.42;;
52964;SDS011;42923;53.220;6.528;2023-04-03T06:22:52;10.38;;;3.67;;
52964;SDS011;42923;53.220;6.528;2023-04-03T06:25:18;10.02;;;2.65;;
52964;SDS011;42923;53.220;6.528;2023-04-03T06:27:44;8.07;;;3.40;;
52964;SDS011;42923;53.220;6.528;2023-04-03T06:30:10;5.15;;;3.22;;
52964;SDS011;42923;53.220;6.528;2023-04-03T06:32:37;11.07;;;2.97;;
52964;SDS011;42923;53.220;6.528;2023-04-03T06:35:03;3.97;;;2.28;;
52964;SDS011;42923;53.220;6.528;2023-04-03T06:37:30;5.18;;;2.60;;
52964;SDS011;42923;53.220;6.528;2023-04-03T06:39:57;6.30;;;2.60;;
52964;SDS011;42923;53.220;6.528;2023-04-03T06:42:25;8.23;;;2.63;;
52964;SDS011;42923;53.220;6.528;2023-04-03T06:44:57;7.85;;;3.63;;
52964;SDS011;42923;53.220;6.528;2023-04-03T06:47:23;5.18;;;2.65;;
52964;SDS011;42923;53.220;6.528;2023-04-03T06:49:48;7.13;;;2.63;;
52964;SDS011;42923;53.220;6.528;2023-04-03T06:52:14;5.35;;;2.35;;
52964;SDS011;42923;53.220;6.528;2023-04-03T06:54:40;3.70;;;2.28;;
52964;SDS011;42923;53.220;6.528;2023-04-03T06:57:06;5.82;;;2.95;;
52964;SDS011;42923;53.220;6.528;2023-04-03T06:59:33;7.13;;;2.85;;
52964;SDS011;42923;53.220;6.528;2023-04-03T07:01:59;4.45;;;2.55;;
52964;SDS011;42923;53.220;6.528;2023-04-03T07:04:25;4.28;;;2.55;;
52964;SDS011;42923;53.220;6.528;2023-04-03T07:06:51;4.32;;;2.00;;
52964;SDS011;42923;53.220;6.528;2023-04-03T07:09:17;5.45;;;2.25;;
52964;SDS011;42923;53.220;6.528;2023-04-03T07:11:43;6.18;;;2.13;;
52964;SDS011;42923;53.220;6.528;2023-04-03T07:14:09;3.42;;;2.40;;
52964;SDS011;42923;53.220;6.528;2023-04-03T07:16:35;4.82;;;2.65;;
52964;SDS011;42923;53.220;6.528;2023-04-03T07:19:01;11.98;;;2.92;;
52964;SDS011;42923;53.220;6.528;2023-04-03T07:21:28;5.30;;;2.35;;
52964;SDS011;42923;53.220;6.528;2023-04-03T07:23:54;7.63;;;2.88;;
52964;SDS011;42923;53.220;6.528;2023-04-03T07:26:20;4.55;;;2.17;;
52964;SDS011;42923;53.220;6.528;2023-04-03T07:28:47;5.40;;;2.75;;
52964;SDS011;42923;53.220;6.528;2023-04-03T07:31:16;6.53;;;2.03;;
52964;SDS011;42923;53.220;6.528;2023-04-03T07:33:42;5.13;;;3.03;;
52964;SDS011;42923;53.220;6.528;2023-04-03T07:36:09;9.25;;;2.85;;
52964;SDS011;42923;53.220;6.528;2023-04-03T07:38:39;6.78;;;3.03;;
52964;SDS011;42923;53.220;6.528;2023-04-03T07:41:05;7.50;;;2.80;;
52964;SDS011;42923;53.220;6.528;2023-04-03T07:43:31;6.70;;;2.40;;
52964;SDS011;42923;53.220;6.528;2023-04-03T07:45:56;4.82;;;2.40;;
52964;SDS011;42923;53.220;6.528;2023-04-03T07:48:24;4.38;;;2.20;;
52964;SDS011;42923;53.220;6.528;2023-04-03T07:50:51;6.80;;;2.25;;
52964;SDS011;42923;53.220;6.528;2023-04-03T07:53:17;7.00;;;2.45;;
52964;SDS011;42923;53.220;6.528;2023-04-03T07:55:47;9.80;;;2.33;;
52964;SDS011;42923;53.220;6.528;2023-04-03T07:58:16;8.55;;;2.88;;
52964;SDS011;42923;53.220;6.528;2023-04-03T08:00:43;4.88;;;2.40;;
52964;SDS011;42923;53.220;6.528;2023-04-03T08:03:10;4.85;;;2.28;;
52964;SDS011;42923;53.220;6.528;2023-04-03T08:05:40;6.07;;;2.58;;
52964;SDS011;42923;53.220;6.528;2023-04-03T08:08:07;6.25;;;2.50;;
52964;SDS011;42923;53.220;6.528;2023-04-03T08:10:33;5.03;;;2.00;;
52964;SDS011;42923;53.220;6.528;2023-04-03T08:12:59;7.65;;;2.75;;
52964;SDS011;42923;53.220;6.528;2023-04-03T08:15:26;3.13;;;2.05;;
52964;SDS011;42923;53.220;6.528;2023-04-03T08:17:52;3.72;;;2.08;;
52964;SDS011;42923;53.220;6.528;2023-04-03T08:20:18;4.82;;;2.55;;
52964;SDS011;42923;53.220;6.528;2023-04-03T08:22:44;5.65;;;2.28;;
52964;SDS011;42923;53.220;6.528;2023-04-03T08:25:09;4.82;;;2.40;;
52964;SDS011;42923;53.220;6.528;2023-04-03T08:27:35;5.22;;;2.15;;
52964;SDS011;42923;53.220;6.528;2023-04-03T08:30:02;6.40;;;2.45;;
52964;SDS011;42923;53.220;6.528;2023-04-03T08:32:29;4.00;;;2.17;;
52964;SDS011;42923;53.220;6.528;2023-04-03T08:34:55;3.75;;;2.08;;
52964;SDS011;42923;53.220;6.528;2023-04-03T08:37:21;7.22;;;2.53;;
52964;SDS011;42923;53.220;6.528;2023-04-03T08:39:46;28.08;;;2.53;;
52964;SDS011;42923;53.220;6.528;2023-04-03T08:45:02;9.00;;;2.38;;
52964;SDS011;42923;53.220;6.528;2023-04-03T08:50:15;5.43;;;2.08;;
52964;SDS011;42923;53.220;6.528;2023-04-03T08:52:53;6.15;;;1.83;;
52964;SDS011;42923;53.220;6.528;2023-04-03T08:55:27;9.07;;;2.25;;
52964;SDS011;42923;53.220;6.528;2023-04-03T08:57:58;15.70;;;2.60;;
52964;SDS011;42923;53.220;6.528;2023-04-03T09:00:34;3.97;;;2.05;;
52964;SDS011;42923;53.220;6.528;2023-04-03T09:03:13;3.10;;;1.88;;
52964;SDS011;42923;53.220;6.528;2023-04-03T09:10:49;4.60;;;1.88;;
52964;SDS011;42923;53.220;6.528;2023-04-03T09:13:30;2.85;;;2.10;;
52964;SDS011;42923;53.220;6.528;2023-04-03T09:19:23;6.55;;;2.30;;
52964;SDS011;42923;53.220;6.528;2023-04-03T09:24:55;3.50;;;1.90;;
52964;SDS011;42923;53.220;6.528;2023-04-03T09:27:25;6.30;;;1.98;;
52964;SDS011;42923;53.220;6.528;2023-04-03T09:29:52;6.95;;;1.73;;
52964;SDS011;42923;53.220;6.528;2023-04-03T09:32:27;3.85;;;1.75;;
52964;SDS011;42923;53.220;6.528;2023-04-03T09:34:56;2.63;;;1.63;;
52964;SDS011;42923;53.220;6.528;2023-04-03T09:40:03;4.78;;;2.10;;
52964;SDS011;42923;53.220;6.528;2023-04-03T09:42:31;7.22;;;2.70;;
52964;SDS011;42923;53.220;6.528;2023-04-03T09:45:00;5.38;;;2.20;;
52964;SDS011;42923;53.220;6.528;2023-04-03T09:52:39;6.47;;;2.00;;
52964;SDS011;42923;53.220;6.528;2023-04-03T09:55:08;3.30;;;1.52;;
52964;SDS011;42923;53.220;6.528;2023-04-03T09:57:40;6.03;;;1.98;;
52964;SDS011;42923;53.220;6.528;2023-04-03T10:00:10;3.92;;;1.63;;
52964;SDS011;42923;53.220;6.528;2023-04-03T10:02:48;3.00;;;1.65;;
52964;SDS011;42923;53.220;6.528;2023-04-03T10:05:31;3.58;;;1.98;;
52964;SDS011;42923;53.220;6.528;2023-04-03T10:10:42;4.47;;;2.17;;
52964;SDS011;42923;53.220;6.528;2023-04-03T10:13:16;2.83;;;1.50;;
52964;SDS011;42923;53.220;6.528;2023-04-03T10:15:45;1.60;;;1.45;;
52964;SDS011;42923;53.220;6.528;2023-04-03T10:18:27;3.50;;;1.65;;
52964;SDS011;42923;53.220;6.528;2023-04-03T10:24:00;2.33;;;1.45;;
52964;SDS011;42923;53.220;6.528;2023-04-03T10:26:45;5.38;;;1.92;;
52964;SDS011;42923;53.220;6.528;2023-04-03T10:32:10;1.67;;;1.27;;
52964;SDS011;42923;53.220;6.528;2023-04-03T10:34:48;4.18;;;1.50;;
52964;SDS011;42923;53.220;6.528;2023-04-03T10:37:21;2.45;;;1.20;;
52964;SDS011;42923;53.220;6.528;2023-04-03T10:42:34;2.10;;;1.17;;
52964;SDS011;42923;53.220;6.528;2023-04-03T10:53:32;2.75;;;1.42;;
52964;SDS011;42923;53.220;6.528;2023-04-03T11:01:45;1.42;;;0.98;;
52964;SDS011;42923;53.220;6.528;2023-04-03T11:04:33;1.70;;;1.35;;
52964;SDS011;42923;53.220;6.528;2023-04-03T11:07:02;3.88;;;1.30;;
52964;SDS011;42923;53.220;6.528;2023-04-03T11:09:35;2.45;;;1.05;;
52964;SDS011;42923;53.220;6.528;2023-04-03T11:12:17;2.47;;;0.90;;
52964;SDS011;42923;53.220;6.528;2023-04-03T11:14:49;1.95;;;1.08;;
52964;SDS011;42923;53.220;6.528;2023-04-03T11:22:43;2.67;;;0.93;;
52964;SDS011;42923;53.220;6.528;2023-04-03T11:27:47;1.55;;;1.10;;
52964;SDS011;42923;53.220;6.528;2023-04-03T11:31:15;2.45;;;1.25;;
52964;SDS011;42923;53.220;6.528;2023-04-03T11:33:16;2.75;;;1.20;;
52964;SDS011;42923;53.220;6.528;2023-04-03T11:35:55;1.40;;;0.98;;
52964;SDS011;42923;53.220;6.528;2023-04-03T11:38:29;3.10;;;1.05;;
52964;SDS011;42923;53.220;6.528;2023-04-03T11:41:01;1.48;;;0.88;;
52964;SDS011;42923;53.220;6.528;2023-04-03T11:43:31;2.22;;;0.90;;
52964;SDS011;42923;53.220;6.528;2023-04-03T11:45:59;2.53;;;0.80;;
52964;SDS011;42923;53.220;6.528;2023-04-03T11:53:41;4.72;;;1.13;;
52964;SDS011;42923;53.220;6.528;2023-04-03T11:59:15;1.83;;;1.00;;
52964;SDS011;42923;53.220;6.528;2023-04-03T12:01:56;3.83;;;0.95;;
52964;SDS011;42923;53.220;6.528;2023-04-03T12:04:26;2.45;;;1.20;;
52964;SDS011;42923;53.220;6.528;2023-04-03T12:06:54;2.03;;;1.10;;
52964;SDS011;42923;53.220;6.528;2023-04-03T12:15:17;3.38;;;1.20;;
52964;SDS011;42923;53.220;6.528;2023-04-03T12:17:48;2.55;;;1.20;;
52964;SDS011;42923;53.220;6.528;2023-04-03T12:21:16;2.10;;;1.10;;
52964;SDS011;42923;53.220;6.528;2023-04-03T12:25:52;2.08;;;1.13;;
52964;SDS011;42923;53.220;6.528;2023-04-03T12:28:28;2.05;;;1.10;;
52964;SDS011;42923;53.220;6.528;2023-04-03T12:30:54;2.83;;;1.20;;
52964;SDS011;42923;53.220;6.528;2023-04-03T12:33:24;2.33;;;1.13;;
52964;SDS011;42923;53.220;6.528;2023-04-03T12:36:11;1.77;;;1.10;;
52964;SDS011;42923;53.220;6.528;2023-04-03T20:32:34;4.65;;;2.35;;
52964;SDS011;42923;53.220;6.528;2023-04-03T20:35:00;2.50;;;2.00;;
52964;SDS011;42923;53.220;6.528;2023-04-03T20:37:26;2.15;;;1.77;;
52964;SDS011;42923;53.220;6.528;2023-04-03T20:39:51;3.60;;;2.13;;
52964;SDS011;42923;53.220;6.528;2023-04-03T20:42:17;4.63;;;2.25;;
52964;SDS011;42923;53.220;6.528;2023-04-03T20:44:43;3.10;;;1.85;;
52964;SDS011;42923;53.220;6.528;2023-04-03T20:47:10;3.08;;;2.05;;
52964;SDS011;42923;53.220;6.528;2023-04-03T20:49:38;4.00;;;2.20;;
52964;SDS011;42923;53.220;6.528;2023-04-03T20:52:04;3.65;;;2.22;;
52964;SDS011;42923;53.220;6.528;2023-04-03T20:54:30;3.13;;;2.30;;
52964;SDS011;42923;53.220;6.528;2023-04-03T20:56:56;7.38;;;2.28;;
52964;SDS011;42923;53.220;6.528;2023-04-03T20:59:22;5.30;;;2.17;;
52964;SDS011;42923;53.220;6.528;2023-04-03T21:01:49;3.90;;;2.22;;
52964;SDS011;42923;53.220;6.528;2023-04-03T21:04:18;3.13;;;2.20;;
52964;SDS011;42923;53.220;6.528;2023-04-03T21:21:19;10.23;;;3.50;;
52964;SDS011;42923;53.220;6.528;2023-04-03T21:23:49;4.13;;;2.72;;
52964;SDS011;42923;53.220;6.528;2023-04-03T21:26:16;5.75;;;2.28;;
52964;SDS011;42923;53.220;6.528;2023-04-03T21:28:42;3.10;;;2.20;;
52964;SDS011;42923;53.220;6.528;2023-04-03T21:31:08;4.93;;;2.58;;
52964;SDS011;42923;53.220;6.528;2023-04-03T21:33:36;4.13;;;2.40;;
52964;SDS011;42923;53.220;6.528;2023-04-03T21:36:02;6.07;;;3.05;;
52964;SDS011;42923;53.220;6.528;2023-04-03T21:38:28;7.85;;;2.75;;
52964;SDS011;42923;53.220;6.528;2023-04-03T21:40:57;3.58;;;2.38;;
52964;SDS011;42923;53.220;6.528;2023-04-03T21:43:23;6.88;;;2.75;;
52964;SDS011;42923;53.220;6.528;2023-04-03T21:45:52;4.75;;;2.72;;
52964;SDS011;42923;53.220;6.528;2023-04-03T21:48:20;8.27;;;2.75;;
52964;SDS011;42923;53.220;6.528;2023-04-03T21:50:47;6.28;;;2.85;;
52964;SDS011;42923;53.220;6.528;2023-04-03T21:53:18;8.05;;;2.90;;
52964;SDS011;42923;53.220;6.528;2023-04-03T21:55:56;6.32;;;2.78;;
52964;SDS011;42923;53.220;6.528;2023-04-03T21:58:28;4.95;;;2.42;;
52964;SDS011;42923;53.220;6.528;2023-04-03T22:00:55;6.18;;;2.67;;
52964;SDS011;42923;53.220;6.528;2023-04-03T22:03:21;3.08;;;2.28;;
52964;SDS011;42923;53.220;6.528;2023-04-03T22:05:47;5.55;;;2.78;;
52964;SDS011;42923;53.220;6.528;2023-04-03T22:08:13;5.00;;;2.50;;
52964;SDS011;42923;53.220;6.528;2023-04-03T22:10:39;7.50;;;2.83;;
52964;SDS011;42923;53.220;6.528;2023-04-03T22:13:05;3.25;;;2.35;;
52964;SDS011;42923;53.220;6.528;2023-04-03T22:15:37;6.93;;;2.83;;
52964;SDS011;42923;53.220;6.528;2023-04-03T22:18:08;2.38;;;2.13;;
52964;SDS011;42923;53.220;6.528;2023-04-03T22:20:34;4.20;;;2.45;;
52964;SDS011;42923;53.220;6.528;2023-04-03T22:23:00;5.57;;;3.58;;
52964;SDS011;42923;53.220;6.528;2023-04-03T22:25:26;4.47;;;2.75;;
52964;SDS011;42923;53.220;6.528;2023-04-03T22:27:52;6.57;;;3.22;;
52964;SDS011;42923;53.220;6.528;2023-04-03T22:30:18;3.60;;;2.80;;
52964;SDS011;42923;53.220;6.528;2023-04-03T22:32:43;5.07;;;2.92;;
52964;SDS011;42923;53.220;6.528;2023-04-03T22:35:10;8.30;;;3.55;;
52964;SDS011;42923;53.220;6.528;2023-04-03T22:37:35;7.78;;;3.83;;
52964;SDS011;42923;53.220;6.528;2023-04-03T22:40:01;5.05;;;2.92;;
52964;SDS011;42923;53.220;6.528;2023-04-03T22:42:28;7.30;;;3.13;;
52964;SDS011;42923;53.220;6.528;2023-04-03T22:44:54;6.80;;;3.05;;
52964;SDS011;42923;53.220;6.528;2023-04-03T22:47:19;7.68;;;3.42;;
52964;SDS011;42923;53.220;6.528;2023-04-03T22:49:45;5.30;;;3.03;;
52964;SDS011;42923;53.220;6.528;2023-04-03T22:52:10;5.72;;;3.15;;
52964;SDS011;42923;53.220;6.528;2023-04-03T22:54:36;7.38;;;2.92;;
52964;SDS011;42923;53.220;6.528;2023-04-03T22:57:02;7.10;;;2.90;;
52964;SDS011;42923;53.220;6.528;2023-04-03T22:59:28;6.93;;;3.50;;
52964;SDS011;42923;53.220;6.528;2023-04-03T23:01:54;4.25;;;2.92;;
52964;SDS011;42923;53.220;6.528;2023-04-03T23:04:19;9.45;;;3.15;;
52964;SDS011;42923;53.220;6.528;2023-04-03T23:06:45;6.85;;;3.65;;
52964;SDS011;42923;53.220;6.528;2023-04-03T23:09:11;6.72;;;3.33;;
52964;SDS011;42923;53.220;6.528;2023-04-03T23:11:37;8.93;;;3.72;;
52964;SDS011;42923;53.220;6.528;2023-04-03T23:14:02;5.93;;;3.20;;
52964;SDS011;42923;53.220;6.528;2023-04-03T23:16:28;6.50;;;3.15;;
52964;SDS011;42923;53.220;6.528;2023-04-03T23:18:54;3.63;;;3.00;;
52964;SDS011;42923;53.220;6.528;2023-04-03T23:21:19;6.03;;;3.15;;
52964;SDS011;42923;53.220;6.528;2023-04-03T23:23:45;6.47;;;3.35;;
52964;SDS011;42923;53.220;6.528;2023-04-03T23:26:11;5.00;;;2.92;;
52964;SDS011;42923;53.220;6.528;2023-04-03T23:28:36;7.57;;;3.97;;
52964;SDS011;42923;53.220;6.528;2023-04-03T23:31:03;5.88;;;3.47;;
52964;SDS011;42923;53.220;6.528;2023-04-03T23:33:31;4.40;;;3.30;;
52964;SDS011;42923;53.220;6.528;2023-04-03T23:35:58;6.00;;;3.80;;
52964;SDS011;42923;53.220;6.528;2023-04-03T23:38:24;5.43;;;3.58;;
52964;SDS011;42923;53.220;6.528;2023-04-03T23:40:50;5.97;;;4.00;;
52964;SDS011;42923;53.220;6.528;2023-04-03T23:43:16;6.07;;;3.30;;
52964;SDS011;42923;53.220;6.528;2023-04-03T23:45:44;6.82;;;4.07;;
52964;SDS011;42923;53.220;6.528;2023-04-03T23:48:10;9.60;;;3.25;;
52964;SDS011;42923;53.220;6.528;2023-04-03T23:50:36;8.35;;;3.92;;
52964;SDS011;42923;53.220;6.528;2023-04-03T23:53:02;7.70;;;3.92;;
52964;SDS011;42923;53.220;6.528;2023-04-03T23:55:27;6.50;;;4.35;;
52964;SDS011;42923;53.220;6.528;2023-04-03T23:57:53;6.80;;;3.90;;
